createdAt,value
2019-03-23T00:00:57.556Z,20.02
2019-03-23T00:01:57.514Z,20.02
2019-03-23T00:02:57.525Z,20.02
2019-03-23T00:03:57.539Z,20.02
2019-03-23T00:04:57.486Z,20.02
2019-03-23T00:05:57.475Z,20.02
2019-03-23T00:06:57.459Z,20.02
2019-03-23T00:07:57.457Z,20.00
2019-03-23T00:08:57.473Z,20.00
2019-03-23T00:09:58.726Z,20.00
2019-03-23T00:10:57.463Z,20.00
2019-03-23T00:11:57.413Z,19.99
2019-03-23T00:12:57.397Z,19.99
2019-03-23T00:13:57.385Z,20.00
2019-03-23T00:14:57.377Z,20.00
2019-03-23T00:15:57.409Z,19.99
2019-03-23T00:16:57.355Z,20.00
2019-03-23T00:17:57.346Z,19.99
2019-03-23T00:18:57.334Z,19.99
2019-03-23T00:19:57.324Z,19.99
2019-03-23T00:20:57.334Z,19.99
2019-03-23T00:21:57.304Z,19.99
2019-03-23T00:22:57.314Z,19.99
2019-03-23T00:23:57.279Z,20.00
2019-03-23T00:24:57.264Z,19.99
2019-03-23T00:25:57.273Z,19.99
2019-03-23T00:26:57.272Z,19.99
2019-03-23T00:27:57.362Z,19.96
2019-03-23T00:28:57.226Z,19.96
2019-03-23T00:29:57.212Z,19.95
2019-03-23T00:30:57.203Z,19.99
2019-03-23T00:31:57.193Z,19.99
2019-03-23T00:32:57.212Z,19.95
2019-03-23T00:33:57.171Z,19.96
2019-03-23T00:34:57.152Z,19.95
2019-03-23T00:35:57.147Z,19.96
2019-03-23T00:36:57.133Z,19.95
2019-03-23T00:37:57.170Z,19.96
2019-03-23T00:38:57.120Z,19.95
2019-03-23T00:39:57.106Z,19.96
2019-03-23T00:40:57.091Z,19.96
2019-03-23T00:41:57.077Z,19.96
2019-03-23T00:42:57.107Z,19.96
2019-03-23T00:43:57.057Z,19.95
2019-03-23T00:44:57.047Z,19.95
2019-03-23T00:45:57.032Z,19.96
2019-03-23T00:46:57.030Z,19.95
2019-03-23T00:47:57.049Z,19.95
2019-03-23T00:48:57.018Z,19.95
2019-03-23T00:49:56.995Z,19.95
2019-03-23T00:50:56.987Z,19.95
2019-03-23T00:51:56.974Z,19.95
2019-03-23T00:52:56.984Z,19.95
2019-03-23T00:53:56.954Z,19.95
2019-03-23T00:54:56.947Z,19.96
2019-03-23T00:55:56.958Z,19.95
2019-03-23T00:56:56.918Z,19.95
2019-03-23T00:57:56.903Z,19.94
2019-03-23T00:58:56.896Z,19.95
2019-03-23T00:59:56.909Z,19.94
2019-03-23T01:00:56.876Z,19.95
2019-03-23T01:01:56.861Z,19.95
2019-03-23T01:02:56.859Z,19.95
2019-03-23T01:03:56.838Z,19.95
2019-03-23T01:04:56.866Z,19.95
2019-03-23T01:05:56.839Z,19.95
2019-03-23T01:06:56.806Z,19.95
2019-03-23T01:07:56.835Z,19.94
2019-03-23T01:08:56.788Z,19.95
2019-03-23T01:09:56.783Z,19.95
2019-03-23T01:10:56.790Z,19.94
2019-03-23T01:11:56.787Z,19.95
2019-03-23T01:12:56.745Z,19.94
2019-03-23T01:13:56.733Z,19.94
2019-03-23T01:14:56.724Z,19.95
2019-03-23T01:15:56.749Z,19.94
2019-03-23T01:16:56.703Z,19.95
2019-03-23T01:17:56.694Z,19.94
2019-03-23T01:18:56.685Z,19.94
2019-03-23T01:19:56.668Z,19.95
2019-03-23T01:20:56.694Z,19.95
2019-03-23T01:21:56.671Z,19.95
2019-03-23T01:22:56.641Z,19.94
2019-03-23T01:23:56.628Z,19.94
2019-03-23T01:24:56.611Z,19.94
2019-03-23T01:25:56.689Z,19.95
2019-03-23T01:26:56.623Z,19.95
2019-03-23T01:27:56.581Z,19.94
2019-03-23T01:28:56.568Z,19.95
2019-03-23T01:29:56.557Z,19.94
2019-03-23T01:30:56.582Z,19.94
2019-03-23T01:31:56.541Z,19.94
2019-03-23T01:32:56.534Z,19.92
2019-03-23T01:33:56.559Z,19.95
2019-03-23T01:34:56.519Z,19.92
2019-03-23T01:35:56.492Z,19.95
2019-03-23T01:37:02.786Z,19.94
2019-03-23T01:37:57.472Z,19.94
2019-03-23T01:38:56.492Z,19.94
2019-03-23T01:39:56.456Z,19.92
2019-03-23T01:40:56.445Z,19.92
2019-03-23T01:41:56.457Z,19.94
2019-03-23T01:42:56.417Z,19.94
2019-03-23T01:43:56.407Z,19.92
2019-03-23T01:44:56.448Z,19.92
2019-03-23T01:45:56.385Z,19.91
2019-03-23T01:46:56.372Z,19.94
2019-03-23T01:47:56.364Z,19.94
2019-03-23T01:48:56.369Z,19.94
2019-03-23T01:49:56.382Z,19.94
2019-03-23T01:50:56.331Z,19.94
2019-03-23T01:51:56.346Z,19.94
2019-03-23T01:52:56.312Z,19.92
2019-03-23T01:53:56.297Z,19.92
2019-03-23T01:54:56.295Z,19.94
2019-03-23T01:55:56.281Z,19.94
2019-03-23T01:56:56.307Z,19.94
2019-03-23T01:57:56.255Z,19.92
2019-03-23T01:58:56.243Z,19.92
2019-03-23T01:59:56.238Z,19.94
2019-03-23T02:00:56.223Z,19.92
2019-03-23T02:01:56.259Z,19.94
2019-03-23T02:02:56.206Z,19.92
2019-03-23T02:03:56.200Z,19.94
2019-03-23T02:04:56.177Z,19.92
2019-03-23T02:05:56.172Z,19.92
2019-03-23T02:06:56.187Z,19.94
2019-03-23T02:07:56.184Z,19.94
2019-03-23T02:08:56.136Z,19.94
2019-03-23T02:09:56.123Z,19.92
2019-03-23T02:10:56.116Z,19.92
2019-03-23T02:11:56.116Z,19.94
2019-03-23T02:12:56.117Z,19.94
2019-03-23T02:13:56.078Z,19.94
2019-03-23T02:14:56.067Z,19.92
2019-03-23T02:15:56.065Z,19.92
2019-03-23T02:16:56.052Z,19.94
2019-03-23T02:17:56.097Z,19.92
2019-03-23T02:18:56.029Z,19.92
2019-03-23T02:19:56.019Z,19.94
2019-03-23T02:20:56.009Z,19.94
2019-03-23T02:21:55.994Z,19.91
2019-03-23T02:22:56.014Z,19.92
2019-03-23T02:23:55.999Z,19.92
2019-03-23T02:24:55.965Z,19.92
2019-03-23T02:25:55.951Z,19.94
2019-03-23T02:26:55.944Z,19.92
2019-03-23T02:27:55.930Z,19.92
2019-03-23T02:28:55.964Z,19.94
2019-03-23T02:29:55.907Z,19.94
2019-03-23T02:30:55.902Z,19.94
2019-03-23T02:31:55.883Z,19.94
2019-03-23T02:32:55.887Z,19.94
2019-03-23T02:33:55.894Z,19.94
2019-03-23T02:34:55.861Z,19.94
2019-03-23T02:35:55.841Z,19.95
2019-03-23T02:36:55.834Z,19.94
2019-03-23T02:37:55.822Z,19.94
2019-03-23T02:38:55.855Z,19.94
2019-03-23T02:39:55.811Z,19.94
2019-03-23T02:40:55.809Z,19.94
2019-03-23T02:41:55.778Z,19.94
2019-03-23T02:42:55.762Z,19.94
2019-03-23T02:43:55.786Z,19.94
2019-03-23T02:44:55.740Z,19.94
2019-03-23T02:45:55.733Z,19.94
2019-03-23T02:46:55.721Z,19.94
2019-03-23T02:47:55.716Z,19.94
2019-03-23T02:48:55.733Z,19.94
2019-03-23T02:49:55.687Z,19.95
2019-03-23T02:50:55.707Z,19.95
2019-03-23T02:51:55.671Z,19.94
2019-03-23T02:52:55.660Z,19.95
2019-03-23T02:53:55.664Z,19.95
2019-03-23T02:54:55.639Z,19.94
2019-03-23T02:55:55.659Z,19.94
2019-03-23T02:56:55.610Z,19.95
2019-03-23T02:57:55.603Z,19.95
2019-03-23T02:58:55.598Z,19.95
2019-03-23T02:59:55.619Z,19.95
2019-03-23T03:00:55.569Z,19.95
2019-03-23T03:01:55.555Z,19.95
2019-03-23T03:02:55.543Z,19.94
2019-03-23T03:03:55.557Z,19.94
2019-03-23T03:04:55.562Z,19.95
2019-03-23T03:05:55.514Z,19.95
2019-03-23T03:06:55.502Z,19.95
2019-03-23T03:07:55.533Z,19.96
2019-03-23T03:08:55.486Z,19.95
2019-03-23T03:09:55.481Z,19.95
2019-03-23T03:10:55.467Z,19.95
2019-03-23T03:11:55.482Z,19.96
2019-03-23T03:12:55.437Z,19.95
2019-03-23T03:13:55.480Z,19.95
2019-03-23T03:14:55.418Z,19.95
2019-03-23T03:15:55.413Z,19.96
2019-03-23T03:16:55.416Z,19.96
2019-03-23T03:17:55.391Z,19.95
2019-03-23T03:18:55.409Z,19.95
2019-03-23T03:19:55.366Z,19.95
2019-03-23T03:20:55.352Z,19.95
2019-03-23T03:21:55.358Z,19.95
2019-03-23T03:22:55.338Z,19.95
2019-03-23T03:23:55.358Z,19.95
2019-03-23T03:24:55.310Z,19.96
2019-03-23T03:25:55.300Z,19.95
2019-03-23T03:26:55.336Z,19.96
2019-03-23T03:27:55.285Z,19.96
2019-03-23T03:28:55.274Z,19.96
2019-03-23T03:29:55.256Z,19.96
2019-03-23T03:30:55.247Z,19.96
2019-03-23T03:31:55.333Z,19.96
2019-03-23T03:32:55.270Z,19.96
2019-03-23T03:33:55.220Z,19.96
2019-03-23T03:34:55.204Z,19.96
2019-03-23T03:35:55.195Z,19.96
2019-03-23T03:36:55.213Z,19.99
2019-03-23T03:37:56.903Z,19.96
2019-03-23T03:38:55.171Z,19.96
2019-03-23T03:39:55.143Z,19.99
2019-03-23T03:40:55.140Z,19.96
2019-03-23T03:41:55.164Z,19.95
2019-03-23T03:42:55.123Z,19.99
2019-03-23T03:43:55.102Z,19.99
2019-03-23T03:44:55.106Z,19.96
2019-03-23T03:45:55.083Z,19.99
2019-03-23T03:46:55.095Z,19.99
2019-03-23T03:47:55.093Z,19.96
2019-03-23T03:48:55.047Z,19.96
2019-03-23T03:49:55.042Z,19.96
2019-03-23T03:50:55.028Z,19.96
2019-03-23T03:51:55.026Z,19.96
2019-03-23T03:52:55.052Z,19.99
2019-03-23T03:53:54.996Z,19.99
2019-03-23T03:54:54.978Z,19.96
2019-03-23T03:55:54.975Z,19.96
2019-03-23T03:56:54.959Z,19.99
2019-03-23T03:57:54.989Z,19.99
2019-03-23T03:58:54.944Z,19.96
2019-03-23T03:59:54.956Z,19.96
2019-03-23T04:00:54.918Z,19.99
2019-03-23T04:01:54.912Z,19.96
2019-03-23T04:02:54.924Z,19.99
2019-03-23T04:03:54.886Z,19.99
2019-03-23T04:04:54.876Z,19.96
2019-03-23T04:05:54.863Z,19.96
2019-03-23T04:06:54.879Z,19.99
2019-03-23T04:07:54.839Z,19.99
2019-03-23T04:08:54.860Z,19.99
2019-03-23T04:09:54.854Z,19.99
2019-03-23T04:10:54.813Z,19.96
2019-03-23T04:11:54.800Z,19.96
2019-03-23T04:12:54.802Z,19.96
2019-03-23T04:13:54.775Z,19.96
2019-03-23T04:14:54.809Z,19.99
2019-03-23T04:15:54.752Z,19.96
2019-03-23T04:16:54.744Z,19.99
2019-03-23T04:17:54.742Z,19.96
2019-03-23T04:18:54.727Z,19.99
2019-03-23T04:19:54.753Z,19.99
2019-03-23T04:20:54.713Z,19.96
2019-03-23T04:21:54.695Z,19.99
2019-03-23T04:22:54.697Z,19.96
2019-03-23T04:23:54.670Z,19.99
2019-03-23T04:24:54.697Z,19.99
2019-03-23T04:25:54.647Z,19.99
2019-03-23T04:26:54.633Z,20.00
2019-03-23T04:27:54.638Z,19.99
2019-03-23T04:28:54.617Z,19.99
2019-03-23T04:29:54.644Z,19.99
2019-03-23T04:30:54.595Z,19.99
2019-03-23T04:31:54.581Z,19.99
2019-03-23T04:32:54.567Z,19.99
2019-03-23T04:33:54.561Z,19.96
2019-03-23T04:34:54.576Z,19.99
2019-03-23T04:35:54.578Z,19.99
2019-03-23T04:36:54.527Z,19.99
2019-03-23T04:37:54.512Z,19.99
2019-03-23T04:38:54.507Z,19.96
2019-03-23T04:39:54.494Z,19.99
2019-03-23T04:40:54.513Z,19.99
2019-03-23T04:41:54.475Z,19.99
2019-03-23T04:42:54.466Z,19.96
2019-03-23T04:43:54.455Z,19.96
2019-03-23T04:44:54.442Z,19.99
2019-03-23T04:45:54.474Z,19.96
2019-03-23T04:46:54.418Z,20.00
2019-03-23T04:47:54.411Z,19.95
2019-03-23T04:48:54.399Z,19.96
2019-03-23T04:49:54.386Z,19.99
2019-03-23T04:50:54.411Z,19.99
2019-03-23T04:51:54.362Z,19.99
2019-03-23T04:52:54.355Z,19.96
2019-03-23T04:53:54.346Z,19.99
2019-03-23T04:54:54.331Z,19.99
2019-03-23T04:55:54.388Z,19.96
2019-03-23T04:56:54.312Z,19.96
2019-03-23T04:57:54.318Z,19.99
2019-03-23T04:58:54.283Z,19.96
2019-03-23T04:59:54.279Z,19.96
2019-03-23T05:00:54.315Z,19.96
2019-03-23T05:01:54.258Z,19.99
2019-03-23T05:02:54.241Z,19.96
2019-03-23T05:03:54.234Z,19.96
2019-03-23T05:04:54.227Z,19.99
2019-03-23T05:05:54.236Z,19.96
2019-03-23T05:06:54.204Z,19.95
2019-03-23T05:07:54.190Z,19.96
2019-03-23T05:08:54.207Z,19.99
2019-03-23T05:09:54.202Z,19.99
2019-03-23T05:10:54.158Z,19.96
2019-03-23T05:11:54.156Z,19.96
2019-03-23T05:12:54.148Z,19.96
2019-03-23T05:13:54.161Z,19.96
2019-03-23T05:14:54.122Z,19.96
2019-03-23T05:15:54.110Z,19.96
2019-03-23T05:16:54.098Z,19.96
2019-03-23T05:17:54.085Z,19.99
2019-03-23T05:18:54.128Z,20.00
2019-03-23T05:19:54.063Z,20.02
2019-03-23T05:20:54.054Z,20.00
2019-03-23T05:21:54.036Z,20.00
2019-03-23T05:22:54.027Z,20.02
2019-03-23T05:23:54.054Z,20.02
2019-03-23T05:24:54.013Z,20.03
2019-03-23T05:25:54.010Z,20.04
2019-03-23T05:26:53.990Z,20.06
2019-03-23T05:27:53.971Z,20.07
2019-03-23T05:28:54.047Z,20.07
2019-03-23T05:29:53.956Z,20.07
2019-03-23T05:30:53.944Z,20.10
2019-03-23T05:31:53.953Z,20.10
2019-03-23T05:32:53.927Z,20.13
2019-03-23T05:33:53.948Z,20.13
2019-03-23T05:34:53.899Z,20.14
2019-03-23T05:35:53.888Z,20.14
2019-03-23T05:36:53.882Z,20.18
2019-03-23T05:37:53.867Z,20.19
2019-03-23T05:38:53.895Z,20.21
2019-03-23T05:39:53.861Z,20.22
2019-03-23T05:40:53.860Z,20.22
2019-03-23T05:41:53.845Z,20.24
2019-03-23T05:42:53.813Z,20.25
2019-03-23T05:43:53.809Z,20.26
2019-03-23T05:44:53.797Z,20.28
2019-03-23T05:45:53.813Z,20.28
2019-03-23T05:46:54.410Z,20.28
2019-03-23T05:47:53.761Z,20.29
2019-03-23T05:48:53.756Z,20.32
2019-03-23T05:49:53.741Z,20.32
2019-03-23T05:50:53.762Z,20.32
2019-03-23T05:51:53.763Z,20.32
2019-03-23T05:52:53.705Z,20.32
2019-03-23T05:53:53.693Z,20.36
2019-03-23T05:54:53.705Z,20.37
2019-03-23T05:55:53.678Z,20.36
2019-03-23T05:56:53.696Z,20.37
2019-03-23T05:57:53.658Z,20.36
2019-03-23T05:58:53.642Z,20.37
2019-03-23T05:59:53.631Z,20.39
2019-03-23T06:00:53.621Z,20.39
2019-03-23T06:01:53.666Z,20.39
2019-03-23T06:02:53.599Z,20.39
2019-03-23T06:03:53.589Z,20.40
2019-03-23T06:04:53.585Z,20.40
2019-03-23T06:05:53.566Z,20.39
2019-03-23T06:06:53.590Z,20.41
2019-03-23T06:07:53.548Z,20.40
2019-03-23T06:08:55.263Z,20.39
2019-03-23T06:09:53.526Z,20.39
2019-03-23T06:10:53.513Z,20.39
2019-03-23T06:11:53.536Z,20.40
2019-03-23T06:12:53.497Z,20.40
2019-03-23T06:13:53.507Z,20.39
2019-03-23T06:14:53.497Z,20.39
2019-03-23T06:15:53.463Z,20.39
2019-03-23T06:16:53.447Z,20.39
2019-03-23T06:17:53.468Z,20.39
2019-03-23T06:18:53.458Z,20.37
2019-03-23T06:19:53.422Z,20.39
2019-03-23T06:20:53.404Z,20.37
2019-03-23T06:21:53.425Z,20.39
2019-03-23T06:22:53.387Z,20.37
2019-03-23T06:23:53.416Z,20.39
2019-03-23T06:24:53.367Z,20.39
2019-03-23T06:25:53.360Z,20.36
2019-03-23T06:26:53.342Z,20.36
2019-03-23T06:27:53.338Z,20.37
2019-03-23T06:28:53.341Z,20.37
2019-03-23T06:29:53.310Z,20.34
2019-03-23T06:30:53.298Z,20.34
2019-03-23T06:31:53.298Z,20.34
2019-03-23T06:32:53.315Z,20.36
2019-03-23T06:33:53.272Z,20.34
2019-03-23T06:34:53.256Z,20.32
2019-03-23T06:35:53.288Z,20.32
2019-03-23T06:36:53.235Z,20.31
2019-03-23T06:37:53.238Z,20.32
2019-03-23T06:38:53.214Z,20.32
2019-03-23T06:39:53.205Z,20.31
2019-03-23T06:40:53.241Z,20.31
2019-03-23T06:41:53.187Z,20.29
2019-03-23T06:42:59.629Z,20.31
2019-03-23T06:43:54.159Z,20.29
2019-03-23T06:44:53.148Z,20.29
2019-03-23T06:45:53.168Z,20.29
2019-03-23T06:46:53.133Z,20.29
2019-03-23T06:47:53.159Z,20.28
2019-03-23T06:48:53.109Z,20.28
2019-03-23T06:49:53.093Z,20.28
2019-03-23T06:50:53.088Z,20.28
2019-03-23T06:51:53.074Z,20.28
2019-03-23T06:52:53.091Z,20.26
2019-03-23T06:53:53.049Z,20.26
2019-03-23T06:54:53.044Z,20.26
2019-03-23T06:55:53.035Z,20.26
2019-03-23T06:56:53.019Z,20.28
2019-03-23T06:57:53.035Z,20.26
2019-03-23T06:58:53.003Z,20.26
2019-03-23T06:59:52.984Z,20.25
2019-03-23T07:00:52.999Z,20.26
2019-03-23T07:01:52.968Z,20.25
2019-03-23T07:02:52.992Z,20.25
2019-03-23T07:03:52.943Z,20.25
2019-03-23T07:04:52.938Z,20.26
2019-03-23T07:05:52.921Z,20.26
2019-03-23T07:06:52.913Z,20.25
2019-03-23T07:07:52.933Z,20.25
2019-03-23T07:08:52.889Z,20.25
2019-03-23T07:09:52.889Z,20.25
2019-03-23T07:10:52.888Z,20.25
2019-03-23T07:11:52.892Z,20.24
2019-03-23T07:12:52.874Z,20.25
2019-03-23T07:13:52.831Z,20.25
2019-03-23T07:14:52.819Z,20.25
2019-03-23T07:15:52.809Z,20.26
2019-03-23T07:16:52.801Z,20.25
2019-03-23T07:17:52.816Z,20.25
2019-03-23T07:18:52.786Z,20.25
2019-03-23T07:19:52.774Z,20.25
2019-03-23T07:20:52.756Z,20.24
2019-03-23T07:21:52.743Z,20.25
2019-03-23T07:22:54.845Z,20.25
2019-03-23T07:23:52.734Z,20.25
2019-03-23T07:24:52.712Z,20.25
2019-03-23T07:25:52.712Z,20.25
2019-03-23T07:26:52.690Z,20.25
2019-03-23T07:27:52.719Z,20.25
2019-03-23T07:28:52.679Z,20.25
2019-03-23T07:29:52.689Z,20.25
2019-03-23T07:30:52.656Z,20.24
2019-03-23T07:31:52.637Z,20.24
2019-03-23T07:32:52.629Z,20.25
2019-03-23T07:33:52.641Z,20.25
2019-03-23T07:34:52.649Z,20.26
2019-03-23T07:35:52.603Z,20.26
2019-03-23T07:36:52.590Z,20.25
2019-03-23T07:37:52.581Z,20.25
2019-03-23T07:38:52.571Z,20.25
2019-03-23T07:39:52.584Z,20.25
2019-03-23T07:40:52.548Z,20.26
2019-03-23T07:41:52.566Z,20.26
2019-03-23T07:42:52.560Z,20.25
2019-03-23T07:43:52.507Z,20.24
2019-03-23T07:44:52.504Z,20.25
2019-03-23T07:45:52.493Z,20.25
2019-03-23T07:46:52.487Z,20.25
2019-03-23T07:47:52.495Z,20.26
2019-03-23T07:48:52.455Z,20.26
2019-03-23T07:49:52.469Z,20.25
2019-03-23T07:50:52.434Z,20.24
2019-03-23T07:51:52.421Z,20.25
2019-03-23T07:52:52.419Z,20.26
2019-03-23T07:53:52.431Z,20.25
2019-03-23T07:54:52.390Z,20.26
2019-03-23T07:55:52.382Z,20.25
2019-03-23T07:56:52.380Z,20.26
2019-03-23T07:57:52.373Z,20.25
2019-03-23T07:58:52.395Z,20.28
2019-03-23T07:59:52.335Z,20.26
2019-03-23T08:00:52.328Z,20.26
2019-03-23T08:01:52.317Z,20.26
2019-03-23T08:02:52.308Z,20.26
2019-03-23T08:03:52.328Z,20.26
2019-03-23T08:04:52.283Z,20.25
2019-03-23T08:05:52.278Z,20.28
2019-03-23T08:06:52.261Z,20.28
2019-03-23T08:07:52.263Z,20.28
2019-03-23T08:08:52.264Z,20.26
2019-03-23T08:09:52.228Z,20.26
2019-03-23T08:10:52.241Z,20.26
2019-03-23T08:11:52.206Z,20.28
2019-03-23T08:12:52.201Z,20.26
2019-03-23T08:13:52.190Z,20.28
2019-03-23T08:14:52.176Z,20.28
2019-03-23T08:15:52.193Z,20.28
2019-03-23T08:16:52.150Z,20.28
2019-03-23T08:17:52.141Z,20.28
2019-03-23T08:18:52.128Z,20.28
2019-03-23T08:19:52.145Z,20.28
2019-03-23T08:20:52.139Z,20.29
2019-03-23T08:21:52.095Z,20.31
2019-03-23T08:22:52.092Z,20.29
2019-03-23T08:23:52.074Z,20.29
2019-03-23T08:24:52.108Z,20.29
2019-03-23T08:25:52.053Z,20.29
2019-03-23T08:26:52.046Z,20.28
2019-03-23T08:27:52.028Z,20.29
2019-03-23T08:28:52.022Z,20.29
2019-03-23T08:29:52.069Z,20.28
2019-03-23T08:30:51.994Z,20.31
2019-03-23T08:31:52.788Z,20.29
2019-03-23T08:32:51.980Z,20.29
2019-03-23T08:33:52.215Z,20.29
2019-03-23T08:34:51.991Z,20.29
2019-03-23T08:35:51.948Z,20.29
2019-03-23T08:36:51.934Z,20.29
2019-03-23T08:37:51.921Z,20.31
2019-03-23T08:38:51.910Z,20.29
2019-03-23T08:39:51.924Z,20.29
2019-03-23T08:40:51.891Z,20.31
2019-03-23T08:41:51.882Z,20.29
2019-03-23T08:42:51.892Z,20.29
2019-03-23T08:43:51.884Z,20.29
2019-03-23T08:44:51.848Z,20.31
2019-03-23T08:45:51.833Z,20.31
2019-03-23T08:46:51.826Z,20.29
2019-03-23T08:47:51.807Z,20.31
2019-03-23T08:48:51.834Z,20.29
2019-03-23T08:49:51.792Z,20.31
2019-03-23T08:50:51.780Z,20.31
2019-03-23T08:51:51.800Z,20.29
2019-03-23T08:52:51.765Z,20.29
2019-03-23T08:53:51.744Z,20.29
2019-03-23T08:54:51.735Z,20.31
2019-03-23T08:55:51.719Z,20.31
2019-03-23T08:56:51.738Z,20.29
2019-03-23T08:57:51.729Z,20.31
2019-03-23T08:58:51.687Z,20.31
2019-03-23T08:59:51.681Z,20.32
2019-03-23T09:00:51.666Z,20.31
2019-03-23T09:01:51.657Z,20.31
2019-03-23T09:02:51.701Z,20.29
2019-03-23T09:03:52.744Z,20.29
2019-03-23T09:04:51.623Z,20.32
2019-03-23T09:05:51.635Z,20.32
2019-03-23T09:06:51.608Z,20.34
2019-03-23T09:07:52.714Z,20.34
2019-03-23T09:08:51.585Z,20.34
2019-03-23T09:09:59.180Z,20.36
2019-03-23T09:10:52.569Z,20.36
2019-03-23T09:11:51.547Z,20.36
2019-03-23T09:12:51.536Z,20.36
2019-03-23T09:13:51.531Z,20.34
2019-03-23T09:14:51.545Z,20.32
2019-03-23T09:15:51.527Z,20.31
2019-03-23T09:16:51.498Z,20.31
2019-03-23T09:17:51.492Z,20.31
2019-03-23T09:18:51.505Z,20.32
2019-03-23T09:19:51.472Z,20.31
2019-03-23T09:20:51.467Z,20.31
2019-03-23T09:21:51.448Z,20.31
2019-03-23T09:22:51.432Z,20.32
2019-03-23T09:23:51.454Z,20.32
2019-03-23T09:24:51.410Z,20.31
2019-03-23T09:25:51.442Z,20.32
2019-03-23T09:26:51.389Z,20.31
2019-03-23T09:27:51.374Z,20.32
2019-03-23T09:28:51.364Z,20.32
2019-03-23T09:29:51.392Z,20.34
2019-03-23T09:30:51.343Z,20.34
2019-03-23T09:31:51.339Z,20.36
2019-03-23T09:32:51.326Z,20.34
2019-03-23T09:33:51.310Z,20.36
2019-03-23T09:34:51.329Z,20.36
2019-03-23T09:35:51.295Z,20.36
2019-03-23T09:36:51.283Z,20.36
2019-03-23T09:37:51.297Z,20.36
2019-03-23T09:38:51.260Z,20.36
2019-03-23T09:39:51.277Z,20.34
2019-03-23T09:40:51.236Z,20.36
2019-03-23T09:41:51.231Z,20.36
2019-03-23T09:42:51.220Z,20.37
2019-03-23T09:43:51.205Z,20.36
2019-03-23T09:44:51.228Z,20.37
2019-03-23T09:45:51.186Z,20.37
2019-03-23T09:46:51.172Z,20.37
2019-03-23T09:47:51.165Z,20.37
2019-03-23T09:48:51.169Z,20.39
2019-03-23T09:49:51.170Z,20.40
2019-03-23T09:50:51.135Z,20.39
2019-03-23T09:51:51.116Z,20.39
2019-03-23T09:52:51.108Z,20.39
2019-03-23T09:53:51.134Z,20.39
2019-03-23T09:54:51.093Z,20.40
2019-03-23T09:55:51.085Z,20.37
2019-03-23T09:56:51.063Z,20.40
2019-03-23T09:57:51.052Z,20.40
2019-03-23T09:58:51.078Z,20.40
2019-03-23T09:59:51.036Z,20.39
2019-03-23T10:00:51.024Z,20.41
2019-03-23T10:01:51.050Z,20.41
2019-03-23T10:02:51.000Z,20.40
2019-03-23T10:03:51.021Z,20.40
2019-03-23T10:04:50.984Z,20.40
2019-03-23T10:05:50.972Z,20.43
2019-03-23T10:06:50.954Z,20.41
2019-03-23T10:07:51.081Z,20.41
2019-03-23T10:08:50.967Z,20.43
2019-03-23T10:09:50.926Z,20.43
2019-03-23T10:10:50.917Z,20.43
2019-03-23T10:11:50.939Z,20.43
2019-03-23T10:12:50.892Z,20.41
2019-03-23T10:13:50.913Z,20.43
2019-03-23T10:14:50.871Z,20.43
2019-03-23T10:15:50.858Z,20.43
2019-03-23T10:16:50.853Z,20.43
2019-03-23T10:17:50.837Z,20.43
2019-03-23T10:18:50.876Z,20.43
2019-03-23T10:19:50.843Z,20.43
2019-03-23T10:20:50.803Z,20.41
2019-03-23T10:21:50.802Z,20.43
2019-03-23T10:22:50.791Z,20.44
2019-03-23T10:23:50.812Z,20.43
2019-03-23T10:24:50.799Z,20.43
2019-03-23T10:25:50.758Z,20.43
2019-03-23T10:26:52.223Z,20.44
2019-03-23T10:27:50.729Z,20.44
2019-03-23T10:28:50.728Z,20.44
2019-03-23T10:29:50.745Z,20.44
2019-03-23T10:30:50.726Z,20.47
2019-03-23T10:31:50.687Z,20.44
2019-03-23T10:32:50.694Z,20.44
2019-03-23T10:33:50.672Z,20.44
2019-03-23T10:34:50.679Z,20.44
2019-03-23T10:35:50.718Z,20.47
2019-03-23T10:36:50.637Z,20.47
2019-03-23T10:37:50.621Z,20.47
2019-03-23T10:38:50.609Z,20.47
2019-03-23T10:39:50.605Z,20.47
2019-03-23T10:40:50.624Z,20.48
2019-03-23T10:41:50.586Z,20.48
2019-03-23T10:42:50.603Z,20.48
2019-03-23T10:43:50.561Z,20.48
2019-03-23T10:44:50.553Z,20.48
2019-03-23T10:45:50.538Z,20.50
2019-03-23T10:46:50.527Z,20.50
2019-03-23T10:47:50.729Z,20.50
2019-03-23T10:48:50.510Z,20.51
2019-03-23T10:49:50.493Z,20.50
2019-03-23T10:50:50.484Z,20.51
2019-03-23T10:51:50.503Z,20.51
2019-03-23T10:52:50.467Z,20.51
2019-03-23T10:53:50.446Z,20.52
2019-03-23T10:54:50.473Z,20.52
2019-03-23T10:55:50.434Z,20.55
2019-03-23T10:56:50.466Z,20.55
2019-03-23T10:57:50.412Z,20.55
2019-03-23T10:58:50.401Z,20.56
2019-03-23T10:59:50.387Z,20.56
2019-03-23T11:00:50.377Z,20.56
2019-03-23T11:01:50.405Z,20.56
2019-03-23T11:02:50.367Z,20.58
2019-03-23T11:03:50.348Z,20.58
2019-03-23T11:04:50.334Z,20.58
2019-03-23T11:05:50.322Z,20.58
2019-03-23T11:06:50.339Z,20.58
2019-03-23T11:07:50.325Z,20.59
2019-03-23T11:08:50.292Z,20.60
2019-03-23T11:09:50.322Z,20.59
2019-03-23T11:10:50.271Z,20.60
2019-03-23T11:11:50.264Z,20.60
2019-03-23T11:12:50.254Z,20.62
2019-03-23T11:13:50.239Z,20.60
2019-03-23T11:14:50.260Z,20.60
2019-03-23T11:15:50.212Z,20.60
2019-03-23T11:16:50.211Z,20.60
2019-03-23T11:17:50.198Z,20.62
2019-03-23T11:18:50.222Z,20.60
2019-03-23T11:19:50.178Z,20.62
2019-03-23T11:20:50.176Z,20.62
2019-03-23T11:21:50.149Z,20.62
2019-03-23T11:22:50.143Z,20.63
2019-03-23T11:23:50.176Z,20.65
2019-03-23T11:24:50.118Z,20.63
2019-03-23T11:25:50.115Z,20.62
2019-03-23T11:26:50.109Z,20.63
2019-03-23T11:27:50.092Z,20.63
2019-03-23T11:28:50.112Z,20.63
2019-03-23T11:29:50.064Z,20.62
2019-03-23T11:30:50.071Z,20.65
2019-03-23T11:31:50.086Z,20.62
2019-03-23T11:32:50.038Z,20.65
2019-03-23T11:33:50.022Z,20.63
2019-03-23T11:34:50.017Z,20.62
2019-03-23T11:35:57.389Z,20.62
2019-03-23T11:36:51.020Z,20.62
2019-03-23T11:37:50.267Z,20.62
2019-03-23T11:38:49.971Z,20.62
2019-03-23T11:39:49.964Z,20.62
2019-03-23T11:40:54.956Z,20.62
2019-03-23T11:41:50.935Z,20.63
2019-03-23T11:42:50.531Z,20.62
2019-03-23T11:43:49.923Z,20.62
2019-03-23T11:44:50.004Z,20.60
2019-03-23T11:45:49.901Z,20.62
2019-03-23T11:46:49.886Z,20.60
2019-03-23T11:47:49.906Z,20.63
2019-03-23T11:48:49.866Z,20.62
2019-03-23T11:49:49.896Z,20.62
2019-03-23T11:50:49.852Z,20.62
2019-03-23T11:51:49.829Z,20.62
2019-03-23T11:52:49.818Z,20.60
2019-03-23T11:53:49.821Z,20.60
2019-03-23T11:54:49.845Z,20.60
2019-03-23T11:55:49.784Z,20.60
2019-03-23T11:56:49.782Z,20.62
2019-03-23T11:57:49.769Z,20.62
2019-03-23T11:58:49.757Z,20.59
2019-03-23T11:59:49.781Z,20.62
2019-03-23T12:00:49.733Z,20.60
2019-03-23T12:01:51.997Z,20.59
2019-03-23T12:02:49.707Z,20.60
2019-03-23T12:03:49.701Z,20.62
2019-03-23T12:04:49.725Z,20.62
2019-03-23T12:05:49.699Z,20.60
2019-03-23T12:06:49.672Z,20.62
2019-03-23T12:07:49.660Z,20.62
2019-03-23T12:08:49.644Z,20.63
2019-03-23T12:09:49.637Z,20.62
2019-03-23T12:10:49.655Z,20.62
2019-03-23T12:11:49.610Z,20.60
2019-03-23T12:12:49.636Z,20.62
2019-03-23T12:13:49.589Z,20.62
2019-03-23T12:14:49.585Z,20.60
2019-03-23T12:15:49.612Z,20.60
2019-03-23T12:16:49.579Z,20.60
2019-03-23T12:17:49.545Z,20.59
2019-03-23T12:18:49.537Z,20.60
2019-03-23T12:19:49.533Z,20.60
2019-03-23T12:20:49.544Z,20.59
2019-03-23T12:21:50.900Z,20.56
2019-03-23T12:22:49.501Z,20.56
2019-03-23T12:23:49.485Z,20.55
2019-03-23T12:24:49.472Z,20.55
2019-03-23T12:25:49.492Z,20.55
2019-03-23T12:26:49.477Z,20.52
2019-03-23T12:27:49.440Z,20.50
2019-03-23T12:28:49.426Z,20.51
2019-03-23T12:29:49.425Z,20.51
2019-03-23T12:30:49.446Z,20.50
2019-03-23T12:31:49.400Z,20.50
2019-03-23T12:32:49.385Z,20.50
2019-03-23T12:33:49.372Z,20.50
2019-03-23T12:34:49.362Z,20.48
2019-03-23T12:35:49.384Z,20.50
2019-03-23T12:36:49.345Z,20.50
2019-03-23T12:37:49.361Z,20.50
2019-03-23T12:38:49.354Z,20.48
2019-03-23T12:39:49.308Z,20.48
2019-03-23T12:40:49.298Z,20.48
2019-03-23T12:41:49.285Z,20.47
2019-03-23T12:42:49.312Z,20.48
2019-03-23T12:43:49.263Z,20.47
2019-03-23T12:44:49.283Z,20.47
2019-03-23T12:45:49.246Z,20.47
2019-03-23T12:46:49.238Z,20.44
2019-03-23T12:47:49.230Z,20.47
2019-03-23T12:48:49.249Z,20.47
2019-03-23T12:49:49.218Z,20.47
2019-03-23T12:50:49.194Z,20.47
2019-03-23T12:51:49.218Z,20.47
2019-03-23T12:52:49.168Z,20.47